Time;durP1;ratioP1;P1;durP2;ratioP2;P2;SDS_P1;SDS_P2;PMS_P1;PMS_P2;Temp;Humidity;BMP_temperature;BMP_pressure;BME280_temperature;BME280_humidity;BME280_pressure;Samples;Min_cycle;Max_cycle;Signal;HPM_P1;HPM_P2
2022/08/03 00:02:19;;;;;;;7.90;3.05;;;;;;;19.55;95.25;101425.75;5071860;28;20026;-70
2022/08/03 00:04:44;;;;;;;9.60;3.78;;;;;;;19.57;94.38;101429.03;5071711;28;20077;-70
2022/08/03 00:07:10;;;;;;;9.35;3.97;;;;;;;19.57;93.74;101429.88;5070377;28;20029;-70
2022/08/03 00:09:35;;;;;;;13.55;3.80;;;;;;;19.58;93.95;101436.09;5071162;28;20036;-70
2022/08/03 00:12:00;;;;;;;8.25;3.35;;;;;;;19.48;94.36;101426.72;5071446;28;20024;-70
2022/08/03 00:14:26;;;;;;;7.30;3.00;;;;;;;19.44;94.30;101413.91;5071325;28;20102;-70
2022/08/03 00:16:51;;;;;;;8.88;3.20;;;;;;;19.56;94.60;101427.41;5071375;28;20043;-70
2022/08/03 00:19:16;;;;;;;7.47;3.05;;;;;;;19.55;93.88;101434.69;5071557;28;20087;-70
2022/08/03 00:21:42;;;;;;;8.23;4.32;;;;;;;19.43;93.22;101431.22;5071577;28;20056;-70
2022/08/03 00:24:07;;;;;;;6.57;3.47;;;;;;;19.41;93.58;101428.75;5071563;28;20068;-70
2022/08/03 00:26:32;;;;;;;7.72;3.10;;;;;;;19.37;92.86;101432.19;5071449;28;20028;-70
2022/08/03 00:28:58;;;;;;;7.03;3.55;;;;;;;19.22;93.21;101413.78;5071371;28;20120;-70
2022/08/03 00:31:23;;;;;;;10.25;4.13;;;;;;;19.21;93.57;101421.06;5070884;28;20045;-70
2022/08/03 00:33:48;;;;;;;10.15;4.82;;;;;;;19.20;94.09;101424.84;5069952;28;20039;-70
2022/08/03 00:36:14;;;;;;;8.80;3.33;;;;;;;19.19;94.36;101427.78;5071326;28;20436;-70
2022/08/03 00:38:39;;;;;;;8.50;3.15;;;;;;;19.18;95.15;101426.97;5071202;28;20036;-70
2022/08/03 00:41:04;;;;;;;11.15;4.78;;;;;;;19.22;96.25;101427.28;5071229;28;20032;-70
2022/08/03 00:43:30;;;;;;;8.60;3.22;;;;;;;19.22;94.96;101422.69;5070845;28;20554;-70
2022/08/03 00:45:55;;;;;;;6.07;3.10;;;;;;;19.16;95.57;101409.31;5071034;28;20400;-70
2022/08/03 00:48:21;;;;;;;11.48;4.72;;;;;;;19.25;95.54;101421.41;5070863;28;20403;-70
2022/08/03 00:50:47;;;;;;;8.07;3.47;;;;;;;19.26;95.35;101414.94;5070963;28;20537;-70
2022/08/03 00:53:13;;;;;;;14.40;3.95;;;;;;;19.26;95.42;101420.34;5070942;28;20078;-70
2022/08/03 00:55:39;;;;;;;7.68;3.30;;;;;;;19.15;95.29;101419.34;5070871;28;20387;-70
2022/08/03 00:58:05;;;;;;;11.45;4.53;;;;;;;19.13;95.46;101421.44;5070619;28;20093;-70
2022/08/03 01:00:32;;;;;;;11.95;4.53;;;;;;;19.12;95.51;101413.56;5070669;28;20592;-70
2022/08/03 01:02:57;;;;;;;8.57;3.88;;;;;;;19.09;94.94;101420.28;5070709;28;20032;-70
2022/08/03 01:05:23;;;;;;;10.30;4.07;;;;;;;19.00;95.66;101411.72;5070750;28;20047;-70
2022/08/03 01:08:14;;;;;;;6.00;3.63;;;;;;;18.98;96.10;101407.63;5069266;28;20044;-70
2022/08/03 01:10:53;;;;;;;10.30;3.83;;;;;;;18.99;96.53;101407.38;5070653;28;20027;-70
2022/08/03 01:13:30;;;;;;;6.05;3.22;;;;;;;18.98;96.48;101408.44;5070196;28;20544;-69
2022/08/03 01:16:04;;;;;;;11.07;4.85;;;;;;;18.89;95.78;101401.75;5070190;28;20025;-70
2022/08/03 01:18:58;;;;;;;7.18;3.65;;;;;;;18.86;95.11;101404.09;5069862;28;20032;-70
2022/08/03 01:21:32;;;;;;;12.25;3.83;;;;;;;18.78;95.30;101392.59;5069742;28;20023;-70
2022/08/03 01:24:05;;;;;;;9.40;4.53;;;;;;;18.80;96.36;101403.19;5070257;28;20135;-70
2022/08/03 01:26:42;;;;;;;8.73;3.80;;;;;;;18.76;95.99;101396.63;5070305;28;20033;-70
2022/08/03 01:29:35;;;;;;;6.70;3.17;;;;;;;18.74;95.60;101398.72;5068843;28;20052;-70
2022/08/03 01:32:07;;;;;;;10.07;4.43;;;;;;;18.69;96.32;101396.72;5069909;28;20095;-70
2022/08/03 01:34:38;;;;;;;9.98;4.05;;;;;;;18.72;97.21;101398.94;5069981;28;20032;-70
2022/08/03 01:37:08;;;;;;;8.82;5.07;;;;;;;18.74;96.57;101404.94;5070141;28;20032;-70
2022/08/03 01:39:36;;;;;;;7.70;3.83;;;;;;;18.71;97.21;101407.28;5069980;28;20119;-70
2022/08/03 01:42:05;;;;;;;5.97;3.42;;;;;;;18.67;96.80;101406.09;5069887;28;20974;-70
2022/08/03 01:44:35;;;;;;;7.47;3.65;;;;;;;18.61;96.40;101406.00;5069969;28;20016;-70
2022/08/03 01:47:03;;;;;;;7.85;4.07;;;;;;;18.57;96.91;101407.50;5069634;28;20089;-70
2022/08/03 01:49:30;;;;;;;10.38;4.45;;;;;;;18.51;97.65;101400.38;5069705;28;20540;-70
2022/08/03 01:51:57;;;;;;;10.57;3.75;;;;;;;18.50;97.73;101395.22;5068748;28;20059;-70
2022/08/03 01:54:24;;;;;;;6.65;3.83;;;;;;;18.41;96.93;101389.31;5069545;28;20032;-69
2022/08/03 01:56:53;;;;;;;8.93;4.18;;;;;;;18.45;97.75;101397.81;5069631;28;20388;-69
2022/08/03 01:59:20;;;;;;;11.10;5.82;;;;;;;18.43;98.35;101392.63;5069477;28;20021;-69
2022/08/03 02:01:47;;;;;;;10.48;4.72;;;;;;;18.44;99.04;101383.44;5069538;28;20060;-69
2022/08/03 02:04:17;;;;;;;10.18;3.85;;;;;;;18.50;98.90;101393.31;5069508;28;20028;-69
2022/08/03 02:06:45;;;;;;;10.85;4.03;;;;;;;18.52;98.93;101390.38;5069586;28;20028;-69
2022/08/03 02:09:13;;;;;;;6.05;3.75;;;;;;;18.50;97.41;101389.81;5069560;28;20074;-69
2022/08/03 02:11:40;;;;;;;8.82;3.97;;;;;;;18.51;98.32;101396.84;5069456;28;20032;-70
2022/08/03 02:14:06;;;;;;;5.05;3.20;;;;;;;18.44;97.73;101380.75;5069025;28;20025;-70
2022/08/03 02:16:33;;;;;;;11.27;4.47;;;;;;;18.49;98.36;101388.97;5069313;28;20028;-70
2022/08/03 02:19:00;;;;;;;6.95;3.70;;;;;;;18.44;97.08;101393.44;5068828;28;20032;-70
2022/08/03 02:21:29;;;;;;;9.43;4.00;;;;;;;18.38;96.99;101379.81;5069193;28;20024;-69
2022/08/03 02:23:54;;;;;;;6.15;4.18;;;;;;;18.37;97.92;101388.16;5068057;28;20109;-69
2022/08/03 02:26:23;;;;;;;8.35;3.55;;;;;;;18.34;97.92;101378.66;5069455;28;20059;-69
2022/08/03 02:28:52;;;;;;;7.25;3.28;;;;;;;18.32;98.51;101382.66;5069183;28;20484;-69
2022/08/03 02:31:21;;;;;;;6.50;3.88;;;;;;;18.30;99.04;101377.47;5068779;28;20151;-69
2022/08/03 02:33:52;;;;;;;8.70;4.43;;;;;;;18.31;99.34;101379.13;5069061;28;20472;-69
2022/08/03 02:36:25;;;;;;;11.40;4.93;;;;;;;18.36;100.00;101381.91;5069194;28;20033;-69
2022/08/03 02:38:54;;;;;;;11.02;4.97;;;;;;;18.48;100.00;101381.13;5068933;28;20028;-69
2022/08/03 02:41:23;;;;;;;18.08;5.70;;;;;;;18.56;100.00;101376.16;5069380;28;20029;-70
2022/08/03 02:43:52;;;;;;;8.32;4.90;;;;;;;18.65;100.00;101371.22;5069187;28;20368;-70
2022/08/03 02:46:19;;;;;;;15.48;5.60;;;;;;;18.69;99.90;101375.09;5069183;28;20052;-70
2022/08/03 02:48:47;;;;;;;10.43;5.35;;;;;;;18.79;99.63;101374.53;5069184;28;20115;-70
2022/08/03 02:51:15;;;;;;;12.32;5.13;;;;;;;18.82;99.47;101368.63;5068893;28;20028;-69
2022/08/03 02:53:44;;;;;;;14.20;5.68;;;;;;;18.82;99.23;101372.16;5068923;28;20139;-69
2022/08/03 02:56:11;;;;;;;10.30;3.85;;;;;;;18.84;99.09;101371.94;5068948;28;20032;-69
2022/08/03 02:58:39;;;;;;;16.63;5.13;;;;;;;18.80;98.92;101366.16;5068970;28;20405;-69
2022/08/03 03:01:05;;;;;;;8.85;4.65;;;;;;;18.80;98.92;101368.88;5069015;28;20028;-70
2022/08/03 03:03:33;;;;;;;8.00;4.03;;;;;;;18.71;96.86;101366.75;5068775;28;20480;-70
2022/08/03 03:05:59;;;;;;;8.30;4.32;;;;;;;18.64;98.60;101368.75;5068927;28;20020;-70
2022/08/03 03:08:26;;;;;;;12.35;5.20;;;;;;;18.70;98.97;101367.81;5068938;28;20043;-69
2022/08/03 03:10:52;;;;;;;8.27;4.10;;;;;;;18.72;99.03;101371.09;5068852;28;20029;-69
2022/08/03 03:13:19;;;;;;;9.75;4.60;;;;;;;18.73;99.12;101367.31;5068711;28;20123;-69
2022/08/03 03:15:46;;;;;;;9.07;4.60;;;;;;;18.70;99.38;101357.81;5068877;28;20176;-69
2022/08/03 03:18:14;;;;;;;11.48;4.70;;;;;;;18.74;99.37;101367.09;5068949;28;20110;-69
2022/08/03 03:20:40;;;;;;;11.20;4.72;;;;;;;18.76;99.27;101373.13;5068679;28;20039;-69
2022/08/03 03:23:06;;;;;;;13.27;5.78;;;;;;;18.77;99.25;101371.22;5068429;28;20848;-69
2022/08/03 03:25:32;;;;;;;10.82;5.03;;;;;;;18.77;99.49;101379.34;5068758;28;20433;-69
2022/08/03 03:27:59;;;;;;;9.60;4.53;;;;;;;18.77;99.18;101373.94;5068641;28;20042;-70
2022/08/03 03:30:25;;;;;;;12.43;4.43;;;;;;;18.77;99.10;101376.63;5068790;28;20488;-70
2022/08/03 03:32:51;;;;;;;13.73;5.78;;;;;;;18.76;98.96;101367.72;5068458;28;20583;-69
2022/08/03 03:35:17;;;;;;;22.75;5.13;;;;;;;18.77;99.23;101372.03;5068604;28;20115;-70
2022/08/03 03:37:42;;;;;;;9.13;3.78;;;;;;;18.75;99.04;101370.66;5068723;28;20039;-69
2022/08/03 03:40:08;;;;;;;13.18;5.15;;;;;;;18.73;98.80;101373.56;5068611;28;20484;-69
2022/08/03 03:42:34;;;;;;;10.48;4.60;;;;;;;18.73;98.76;101375.44;5068590;28;20102;-69
2022/08/03 03:45:04;;;;;;;12.60;5.75;;;;;;;18.72;98.83;101373.78;5072150;28;20025;-69
2022/08/03 03:47:29;;;;;;;18.67;5.60;;;;;;;18.70;98.86;101370.50;5071986;28;20032;-69
2022/08/03 03:49:56;;;;;;;8.38;4.25;;;;;;;18.69;98.71;101372.38;5072044;28;20119;-69
2022/08/03 03:52:22;;;;;;;10.32;3.70;;;;;;;18.67;98.59;101371.81;5072199;28;20447;-69
2022/08/03 03:54:47;;;;;;;6.00;3.92;;;;;;;18.66;98.42;101370.16;5071747;28;20131;-69
2022/08/03 03:57:12;;;;;;;9.77;4.90;;;;;;;18.61;98.47;101362.78;5071612;28;20040;-69
2022/08/03 03:59:39;;;;;;;11.95;4.47;;;;;;;18.66;98.56;101367.47;5071760;28;20036;-69
2022/08/03 04:02:06;;;;;;;11.70;4.55;;;;;;;18.67;98.48;101365.56;5071954;28;20033;-69
2022/08/03 04:12:56;;;;;;;9.88;3.95;;;;;;;18.59;98.30;101370.28;5071747;28;20048;-69
2022/08/03 04:15:22;;;;;;;9.15;3.58;;;;;;;18.54;98.23;101361.25;5071629;28;20033;-69
2022/08/03 04:17:52;;;;;;;8.80;3.78;;;;;;;18.53;98.47;101362.31;5071596;28;20036;-69
2022/08/03 04:20:20;;;;;;;9.75;4.43;;;;;;;18.51;98.32;101365.25;5071557;28;20035;-69
2022/08/03 04:22:50;;;;;;;10.93;4.40;;;;;;;18.49;98.58;101367.34;5071680;28;20467;-69
2022/08/03 04:25:18;;;;;;;9.25;4.53;;;;;;;18.46;97.80;101369.72;5070888;28;20043;-69
2022/08/03 04:27:46;;;;;;;9.20;5.32;;;;;;;18.36;97.56;101370.31;5071639;28;20067;-69
2022/08/03 04:30:13;;;;;;;11.15;4.15;;;;;;;18.30;98.63;101372.06;5071356;28;20086;-69
2022/08/03 04:32:40;;;;;;;9.85;4.47;;;;;;;18.30;99.09;101371.25;5071186;28;20064;-69
2022/08/03 04:35:06;;;;;;;10.18;4.18;;;;;;;18.31;99.76;101370.19;5071215;28;20120;-69
2022/08/03 04:37:38;;;;;;;7.65;4.30;;;;;;;18.32;99.63;101372.66;5071291;28;20033;-69
2022/08/03 04:40:08;;;;;;;8.77;4.07;;;;;;;18.38;99.25;101368.19;5071241;28;20024;-69
2022/08/03 04:42:35;;;;;;;14.75;4.13;;;;;;;18.45;98.94;101374.31;5071219;28;20032;-69
2022/08/03 04:45:03;;;;;;;10.40;4.90;;;;;;;18.48;98.83;101373.81;5071083;28;20063;-70
2022/08/03 04:47:31;;;;;;;11.15;5.28;;;;;;;18.53;98.96;101376.63;5070902;28;20108;-70
2022/08/03 04:49:58;;;;;;;9.40;4.50;;;;;;;18.74;98.82;101377.09;5071017;28;20044;-70
2022/08/03 04:52:24;;;;;;;10.60;3.47;;;;;;;19.12;96.91;101371.13;5069649;28;20150;-70
2022/08/03 04:54:49;;;;;;;10.70;5.30;;;;;;;19.38;95.14;101375.13;5070393;28;20130;-70
2022/08/03 04:57:15;;;;;;;13.77;4.32;;;;;;;19.43;94.12;101374.41;5070334;28;20035;-69
2022/08/03 04:59:40;;;;;;;7.65;3.88;;;;;;;19.48;93.85;101378.00;5070592;28;20082;-69
2022/08/03 05:02:06;;;;;;;12.00;4.50;;;;;;;19.44;93.48;101378.72;5069485;28;20101;-69
2022/08/03 05:04:31;;;;;;;8.95;4.22;;;;;;;19.48;93.46;101386.13;5070812;28;20063;-69
2022/08/03 05:06:56;;;;;;;8.48;4.22;;;;;;;19.38;93.50;101382.41;5070656;28;20044;-69
2022/08/03 05:09:22;;;;;;;11.70;4.25;;;;;;;19.39;93.56;101389.50;5070773;28;20132;-69
2022/08/03 05:11:47;;;;;;;5.90;4.00;;;;;;;19.41;93.86;101379.22;5070420;28;20037;-69
2022/08/03 05:14:13;;;;;;;13.00;4.72;;;;;;;19.37;93.58;101369.97;5070326;28;20044;-69
2022/08/03 05:16:38;;;;;;;12.93;5.28;;;;;;;19.42;93.25;101387.13;5070348;28;20547;-69
2022/08/03 05:19:03;;;;;;;12.45;5.35;;;;;;;19.36;93.24;101384.53;5069995;28;20082;-69
2022/08/03 05:21:28;;;;;;;14.38;4.75;;;;;;;19.42;93.28;101400.63;5070382;28;20031;-70
2022/08/03 05:23:54;;;;;;;10.95;4.03;;;;;;;19.44;93.37;101408.50;5070443;28;20119;-69
2022/08/03 05:26:19;;;;;;;8.63;3.80;;;;;;;19.45;93.01;101410.16;5070179;28;20064;-69
2022/08/03 05:28:45;;;;;;;8.93;3.90;;;;;;;19.44;93.15;101393.09;5070709;28;20064;-69
2022/08/03 05:31:11;;;;;;;12.55;4.97;;;;;;;19.57;92.73;101402.81;5070085;28;20458;-69
2022/08/03 05:33:36;;;;;;;16.23;5.18;;;;;;;19.62;92.28;101402.91;5070103;28;20438;-69
2022/08/03 05:36:01;;;;;;;8.20;3.88;;;;;;;19.64;92.11;101408.06;5070091;28;20078;-69
2022/08/03 05:38:27;;;;;;;6.90;3.75;;;;;;;19.70;92.61;101410.66;5069925;28;20036;-69
2022/08/03 05:40:52;;;;;;;10.63;4.20;;;;;;;19.74;92.16;101402.03;5069962;28;20058;-69
2022/08/03 05:43:17;;;;;;;8.48;4.25;;;;;;;19.76;92.11;101410.75;5069928;28;20348;-69
2022/08/03 05:45:43;;;;;;;8.63;3.95;;;;;;;19.74;92.52;101407.47;5069946;28;20032;-69
2022/08/03 05:48:08;;;;;;;10.15;4.53;;;;;;;19.77;91.75;101420.50;5069881;28;20020;-67
2022/08/03 05:50:35;;;;;;;10.95;4.55;;;;;;;19.79;91.78;101413.78;5069892;28;20170;-67
2022/08/03 05:53:00;;;;;;;9.65;3.90;;;;;;;19.80;91.94;101412.69;5069461;28;20028;-68
2022/08/03 05:55:26;;;;;;;10.77;4.95;;;;;;;19.83;91.65;101416.81;5069151;28;20036;-67
2022/08/03 05:57:51;;;;;;;12.55;4.38;;;;;;;19.87;91.60;101415.25;5069814;28;20032;-67
2022/08/03 06:00:17;;;;;;;8.38;3.85;;;;;;;19.92;91.77;101421.56;5069506;28;20016;-67
2022/08/03 06:02:42;;;;;;;15.25;6.43;;;;;;;19.98;91.35;101416.25;5069818;28;20487;-67
2022/08/03 06:05:08;;;;;;;9.50;3.97;;;;;;;19.99;91.54;101421.44;5069403;28;20050;-67
2022/08/03 06:07:33;;;;;;;16.52;4.20;;;;;;;19.99;91.89;101413.31;5069046;28;20047;-67
2022/08/03 06:10:01;;;;;;;13.98;5.72;;;;;;;19.95;91.45;101406.72;5069050;28;20029;-67
2022/08/03 06:12:26;;;;;;;13.00;4.50;;;;;;;20.03;90.53;101419.84;5069336;28;20093;-67
2022/08/03 06:14:52;;;;;;;8.60;4.60;;;;;;;20.07;91.19;101420.22;5069355;28;20111;-67
2022/08/03 06:17:17;;;;;;;7.30;4.28;;;;;;;20.09;91.19;101418.88;5069421;28;20029;-67
2022/08/03 06:19:42;;;;;;;10.32;4.68;;;;;;;20.10;91.28;101417.00;5069487;28;20048;-67
2022/08/03 06:22:08;;;;;;;11.60;4.28;;;;;;;20.20;91.66;101421.75;5069242;28;20060;-67
2022/08/03 06:24:33;;;;;;;10.82;4.03;;;;;;;20.25;90.05;101416.41;5069263;28;20044;-67
2022/08/03 06:26:58;;;;;;;11.02;4.97;;;;;;;20.27;90.18;101420.50;5069210;28;20032;-67
2022/08/03 06:29:24;;;;;;;11.20;3.20;;;;;;;20.31;89.96;101418.94;5069198;28;20044;-67
2022/08/03 06:31:49;;;;;;;12.27;3.45;;;;;;;20.36;90.33;101416.31;5067866;28;20049;-67
2022/08/03 06:34:14;;;;;;;16.15;4.53;;;;;;;20.47;90.90;101419.19;5069162;28;20063;-67
2022/08/03 06:36:40;;;;;;;6.97;3.60;;;;;;;20.47;89.12;101411.88;5069200;28;20387;-67
2022/08/03 06:39:06;;;;;;;5.88;3.28;;;;;;;20.61;89.95;101425.09;5068717;28;20111;-67
2022/08/03 06:41:32;;;;;;;11.43;4.00;;;;;;;20.66;88.09;101420.56;5069007;28;20036;-67
2022/08/03 06:43:57;;;;;;;9.40;2.88;;;;;;;20.71;87.40;101433.38;5069203;28;20032;-67
2022/08/03 06:46:23;;;;;;;8.90;2.50;;;;;;;20.72;87.87;101430.44;5069149;28;20032;-67
2022/08/03 06:48:49;;;;;;;8.60;2.78;;;;;;;20.74;85.84;101419.31;5068799;28;20062;-68
2022/08/03 06:51:14;;;;;;;13.05;3.08;;;;;;;20.85;85.26;101429.22;5069128;28;20025;-69
2022/08/03 06:53:40;;;;;;;5.90;2.83;;;;;;;20.86;84.61;101430.06;5067605;28;20032;-69
2022/08/03 06:56:06;;;;;;;9.15;2.17;;;;;;;20.93;84.87;101442.38;5069052;28;20032;-68
2022/08/03 06:58:32;;;;;;;7.05;1.88;;;;;;;20.98;84.59;101439.69;5067262;28;20048;-70
2022/08/03 07:00:57;;;;;;;6.88;2.53;;;;;;;21.07;86.32;101431.94;5068977;28;20031;-68
2022/08/03 07:03:22;;;;;;;7.75;2.67;;;;;;;21.13;84.53;101432.81;5069051;28;20032;-68
2022/08/03 07:05:49;;;;;;;11.02;3.83;;;;;;;21.17;84.68;101425.84;5068752;28;20112;-69
2022/08/03 07:08:15;;;;;;;8.10;2.90;;;;;;;21.25;82.52;101433.53;5069081;28;20039;-68
2022/08/03 07:10:40;;;;;;;8.18;2.70;;;;;;;21.28;81.45;101432.19;5068872;28;20032;-69
2022/08/03 07:13:06;;;;;;;3.97;1.80;;;;;;;21.35;81.39;101439.06;5068962;28;20032;-68
2022/08/03 07:15:31;;;;;;;9.77;2.75;;;;;;;21.37;81.36;101436.91;5068738;28;20115;-69
2022/08/03 07:17:57;;;;;;;8.63;2.03;;;;;;;21.52;81.58;101443.63;5069409;28;20036;-68
2022/08/03 07:20:23;;;;;;;8.05;2.53;;;;;;;21.57;80.53;101440.94;5072618;28;20048;-68
2022/08/03 07:22:48;;;;;;;8.60;2.10;;;;;;;21.61;78.94;101453.75;5072471;28;20021;-68
2022/08/03 07:25:14;;;;;;;7.82;2.45;;;;;;;21.64;78.97;101453.25;5072334;28;20028;-69
2022/08/03 07:27:46;;;;;;;6.60;2.17;;;;;;;21.65;78.85;101454.06;5072513;28;20033;-68
2022/08/03 07:30:13;;;;;;;8.25;2.70;;;;;;;21.64;78.70;101453.25;5072411;28;20166;-68
2022/08/03 07:32:39;;;;;;;8.15;1.88;;;;;;;21.65;78.02;101460.31;5072450;28;20056;-68
2022/08/03 07:35:06;;;;;;;9.30;1.95;;;;;;;21.70;78.07;101456.84;5072363;28;20032;-68
2022/08/03 07:37:31;;;;;;;8.10;2.97;;;;;;;21.76;78.27;101455.78;5068647;28;20118;-68
2022/08/03 07:39:58;;;;;;;13.07;2.80;;;;;;;21.84;78.22;101457.22;5066980;28;20119;-68
2022/08/03 07:42:23;;;;;;;24.65;3.35;;;;;;;21.91;77.75;101465.19;5067912;28;20032;-69
2022/08/03 07:44:49;;;;;;;13.50;2.60;;;;;;;21.98;76.11;101452.19;5067808;28;20073;-68
2022/08/03 07:47:22;;;;;;;10.50;3.22;;;;;;;22.03;76.65;101441.38;5067824;28;20154;-69
2022/08/03 07:49:48;;;;;;;16.25;3.28;;;;;;;22.04;75.66;101449.25;5067597;28;20028;-67
2022/08/03 07:54:57;;;;;;;12.77;2.47;;;;;;;22.12;76.01;101458.03;5071437;28;20146;-67
2022/08/03 07:57:22;;;;;;;14.52;3.08;;;;;;;22.25;78.47;101447.56;5072085;28;20052;-67
2022/08/03 07:59:48;;;;;;;8.80;2.13;;;;;;;22.40;76.34;101449.59;5071778;28;20559;-67
2022/08/03 08:02:13;;;;;;;12.02;2.70;;;;;;;22.49;74.01;101447.19;5071995;28;20032;-67
2022/08/03 08:04:39;;;;;;;10.60;2.25;;;;;;;22.58;73.86;101447.50;5071772;28;20107;-67
2022/08/03 08:07:04;;;;;;;9.43;3.58;;;;;;;22.64;73.12;101441.84;5071807;28;20139;-67
2022/08/03 08:09:29;;;;;;;3.45;2.10;;;;;;;22.77;72.89;101443.28;5071670;28;20056;-67
2022/08/03 08:11:55;;;;;;;24.83;4.13;;;;;;;23.11;72.95;101443.75;5071889;28;20918;-66
2022/08/03 08:14:20;;;;;;;8.20;2.17;;;;;;;24.15;72.76;101431.94;5071559;28;20088;-67
2022/08/03 08:16:46;;;;;;;10.32;3.63;;;;;;;25.77;64.34;101437.91;5071572;28;20048;-66
2022/08/03 08:19:13;;;;;;;9.02;2.08;;;;;;;26.89;59.28;101435.25;5071550;28;20032;-66
2022/08/03 08:21:39;;;;;;;10.98;2.53;;;;;;;28.54;56.36;101431.66;5071607;28;20033;-67
2022/08/03 08:24:05;;;;;;;7.40;1.73;;;;;;;30.17;49.88;101442.88;5071673;28;20021;-67
2022/08/03 08:26:30;;;;;;;11.38;2.83;;;;;;;31.53;46.96;101442.06;5071622;28;20075;-67
2022/08/03 08:28:55;;;;;;;8.68;2.10;;;;;;;32.39;43.06;101437.53;5071389;28;20064;-67
2022/08/03 08:31:21;;;;;;;10.77;3.45;;;;;;;33.19;41.28;101428.50;5071258;28;20060;-67
2022/08/03 08:33:46;;;;;;;10.40;2.85;;;;;;;33.72;39.72;101431.66;5071161;28;20021;-75
2022/08/03 08:36:11;;;;;;;11.20;2.40;;;;;;;34.22;38.66;101433.47;5071358;28;20032;-74
2022/08/03 08:38:37;;;;;;;6.97;1.48;;;;;;;34.60;36.76;101441.47;5071323;28;20033;-75
2022/08/03 08:41:03;;;;;;;7.80;2.75;;;;;;;34.38;36.42;101437.19;5071236;28;20028;-74
2022/08/03 08:43:28;;;;;;;11.82;1.70;;;;;;;34.47;37.68;101428.75;5069799;28;20133;-75
2022/08/03 08:45:58;;;;;;;15.52;2.90;;;;;;;34.87;35.88;101431.66;5071142;28;20039;-75
2022/08/03 08:48:25;;;;;;;7.00;2.42;;;;;;;34.94;34.14;101422.75;5071005;28;20024;-75
2022/08/03 08:50:56;;;;;;;7.43;1.70;;;;;;;34.88;36.24;101429.69;5071037;28;20036;-75
2022/08/03 08:53:24;;;;;;;10.95;2.42;;;;;;;35.08;34.38;101436.25;5070862;28;20094;-74
2022/08/03 08:55:50;;;;;;;8.75;2.03;;;;;;;35.18;34.48;101433.00;5069419;28;20411;-75
2022/08/03 08:58:18;;;;;;;13.50;1.95;;;;;;;34.96;34.16;101433.50;5070735;28;20036;-68
2022/08/03 09:00:44;;;;;;;9.48;1.92;;;;;;;33.98;36.05;101439.72;5070716;28;20028;-69
2022/08/03 09:03:11;;;;;;;11.63;2.00;;;;;;;32.15;38.68;101432.59;5070662;28;20107;-68
2022/08/03 09:05:37;;;;;;;5.32;1.83;;;;;;;30.51;42.81;101434.00;5070438;28;20101;-69
2022/08/03 09:08:04;;;;;;;8.45;3.03;;;;;;;29.50;45.87;101427.97;5070356;28;20475;-69
2022/08/03 09:10:29;;;;;;;13.52;2.53;;;;;;;28.67;47.03;101427.28;5070471;28;20111;-68
2022/08/03 09:12:55;;;;;;;4.25;1.58;;;;;;;27.97;49.52;101426.34;5070570;28;20111;-68
2022/08/03 09:15:32;;;;;;;11.32;1.92;;;;;;;27.63;52.71;101438.34;5070437;28;20698;-69
2022/08/03 09:18:02;;;;;;;12.10;1.92;;;;;;;27.25;53.14;101432.88;5070425;28;20043;-68
2022/08/03 09:20:31;;;;;;;9.18;2.45;;;;;;;27.03;53.28;101425.19;5070378;28;20020;-68
2022/08/03 09:23:03;;;;;;;9.57;1.60;;;;;;;26.89;54.28;101424.28;5070520;28;20058;-68
2022/08/03 09:25:34;;;;;;;6.82;2.88;;;;;;;26.80;53.16;101437.81;5070408;28;20099;-68
2022/08/03 09:28:32;;;;;;;11.95;2.33;;;;;;;26.76;52.98;101434.03;5070055;28;20051;-68
2022/08/03 09:30:59;;;;;;;14.55;3.53;;;;;;;26.72;53.46;101424.75;5068797;28;20129;-68
2022/08/03 09:33:24;;;;;;;5.93;3.20;;;;;;;26.81;54.33;101433.16;5070061;28;20021;-69
2022/08/03 09:35:50;;;;;;;13.10;2.88;;;;;;;26.77;54.21;101429.34;5069970;28;20080;-68
2022/08/03 09:38:24;;;;;;;12.48;2.83;;;;;;;26.83;55.16;101428.22;5070119;28;20129;-68
2022/08/03 09:40:51;;;;;;;16.23;2.63;;;;;;;26.87;56.26;101426.50;5068785;28;20391;-69
2022/08/03 09:43:17;;;;;;;15.85;3.35;;;;;;;26.92;54.22;101422.88;5070036;28;20501;-68
2022/08/03 09:45:43;;;;;;;7.30;2.72;;;;;;;26.83;54.05;101425.47;5069984;28;20021;-69
2022/08/03 09:48:26;;;;;;;10.13;1.95;;;;;;;26.86;54.91;101433.91;5069874;28;20111;-68
2022/08/03 09:50:54;;;;;;;12.75;2.13;;;;;;;26.91;53.80;101421.25;5069953;28;20502;-68
2022/08/03 09:53:21;;;;;;;10.70;2.88;;;;;;;27.01;53.64;101423.84;5069895;28;20471;-68
2022/08/03 09:55:54;;;;;;;9.82;1.83;;;;;;;27.18;53.91;101432.44;5069648;28;20503;-68
2022/08/03 09:58:21;;;;;;;11.85;1.98;;;;;;;27.27;53.51;101433.41;5069498;28;20028;-68
2022/08/03 10:00:53;;;;;;;13.88;3.00;;;;;;;27.21;52.11;101428.28;5069723;28;20029;-68
2022/08/03 10:03:18;;;;;;;12.27;2.20;;;;;;;27.08;53.70;101427.88;5069690;28;20039;-68
2022/08/03 10:05:44;;;;;;;11.50;2.83;;;;;;;27.06;52.38;101432.84;5069617;28;20020;-69
2022/08/03 10:08:14;;;;;;;9.48;2.97;;;;;;;27.05;52.72;101425.72;5069249;28;20037;-69
2022/08/03 10:10:44;;;;;;;13.57;2.10;;;;;;;27.19;53.86;101433.25;5069538;28;20035;-70
2022/08/03 10:13:12;;;;;;;13.75;2.90;;;;;;;27.32;52.42;101435.25;5069489;28;20060;-69
2022/08/03 10:15:41;;;;;;;14.52;3.67;;;;;;;27.32;52.78;101432.50;5069531;28;20021;-69
2022/08/03 10:18:07;;;;;;;11.30;2.70;;;;;;;27.37;53.27;101431.63;5069516;28;20020;-69
2022/08/03 10:20:40;;;;;;;13.20;2.40;;;;;;;27.39;52.20;101423.94;5069449;28;20028;-69
2022/08/03 10:23:07;;;;;;;10.82;2.75;;;;;;;27.48;51.63;101428.47;5069376;28;20119;-69
2022/08/03 10:25:35;;;;;;;11.98;3.03;;;;;;;27.48;52.02;101428.47;5069274;28;20385;-69
2022/08/03 10:28:03;;;;;;;10.68;2.75;;;;;;;27.40;51.44;101423.63;5069091;28;20831;-69
2022/08/03 10:30:31;;;;;;;13.90;2.03;;;;;;;27.49;52.95;101416.38;5069312;28;20041;-70
2022/08/03 10:32:59;;;;;;;8.32;2.13;;;;;;;27.75;54.17;101415.97;5069083;28;20052;-68
2022/08/03 10:35:25;;;;;;;15.88;2.95;;;;;;;27.85;52.13;101413.09;5063602;28;20029;-67
2022/08/03 10:37:58;;;;;;;9.30;2.33;;;;;;;27.92;52.12;101413.50;5065168;28;20487;-69
2022/08/03 10:40:26;;;;;;;12.82;3.70;;;;;;;28.06;51.40;101407.25;5065169;28;20479;-68
2022/08/03 10:42:55;;;;;;;13.43;2.20;;;;;;;28.23;51.58;101407.50;5064567;28;20024;-69
2022/08/03 10:45:24;;;;;;;15.88;3.58;;;;;;;28.32;49.21;101402.13;5080177;28;20020;-68
2022/08/03 10:47:52;;;;;;;17.25;3.05;;;;;;;28.35;49.35;101399.59;5064554;28;20036;-68
2022/08/03 10:50:18;;;;;;;20.58;3.65;;;;;;;28.35;50.61;101391.38;5062917;28;20041;-70
2022/08/03 10:52:57;;;;;;;16.33;3.92;;;;;;;28.39;50.29;101397.03;5067008;28;20074;-68
2022/08/03 10:58:14;;;;;;;10.85;2.95;;;;;;;28.37;49.83;101391.88;5069287;28;20094;-69
2022/08/03 11:00:49;;;;;;;16.00;3.95;;;;;;;28.34;49.42;101384.22;5068719;28;20033;-68
2022/08/03 11:03:15;;;;;;;15.30;2.78;;;;;;;28.31;48.32;101376.63;5068783;28;20492;-68
2022/08/03 11:05:53;;;;;;;11.88;2.58;;;;;;;28.24;49.95;101383.63;5068787;28;20035;-67
2022/08/03 11:08:29;;;;;;;13.95;3.25;;;;;;;28.23;48.84;101374.56;5068666;28;20107;-67
2022/08/03 11:11:19;;;;;;;13.40;2.78;;;;;;;28.25;49.97;101368.81;5068866;28;20629;-68
2022/08/03 11:14:01;;;;;;;15.27;2.17;;;;;;;28.27;48.87;101378.34;5068267;28;20039;-68
2022/08/03 11:16:27;;;;;;;15.48;2.95;;;;;;;28.20;47.94;101369.69;5068380;28;20113;-69
2022/08/03 11:19:02;;;;;;;8.40;2.78;;;;;;;28.27;49.09;101374.78;5068343;28;20116;-69
2022/08/03 11:21:49;;;;;;;15.80;2.78;;;;;;;28.50;49.73;101362.81;5068377;28;20074;-68
2022/08/03 11:24:39;;;;;;;7.50;2.70;;;;;;;28.63;48.37;101361.19;5072366;28;20055;-68
2022/08/03 11:27:16;;;;;;;8.27;1.63;;;;;;;28.83;49.54;101371.75;5072414;28;20093;-68
2022/08/03 11:29:59;;;;;;;10.15;2.78;;;;;;;29.02;49.14;101374.34;5072440;28;20111;-68
2022/08/03 11:32:37;;;;;;;9.60;2.85;;;;;;;29.04;47.46;101374.06;5072519;28;20052;-68
2022/08/03 11:35:07;;;;;;;9.77;2.08;;;;;;;29.11;46.21;101384.63;5072340;28;20044;-67
2022/08/03 11:37:34;;;;;;;5.73;1.80;;;;;;;29.12;45.04;101378.03;5072456;28;20032;-68
2022/08/03 11:39:59;;;;;;;9.60;2.35;;;;;;;29.20;46.19;101378.09;5072243;28;20020;-67